createdAt,value
2022-10-22T00:00:30.057Z,100027.02
2022-10-22T00:02:35.902Z,100027.75
2022-10-22T00:04:41.660Z,100027.09
2022-10-22T00:06:48.248Z,100028.58
2022-10-22T00:08:53.710Z,100025.46
2022-10-22T00:10:59.401Z,100022.23
2022-10-22T00:13:04.444Z,100022.14
2022-10-22T00:15:09.687Z,100025.22
2022-10-22T00:17:15.253Z,100022.41
2022-10-22T00:19:20.714Z,100021.73
2022-10-22T00:21:25.975Z,100018.94
2022-10-22T00:23:31.145Z,100018.28
2022-10-22T00:25:39.600Z,100017.63
2022-10-22T00:27:44.954Z,100013.24
2022-10-22T00:29:50.276Z,100012.34
2022-10-22T00:34:01.281Z,100000.45
2022-10-22T00:36:06.491Z,99998.39
2022-10-22T00:38:11.939Z,99989.31
2022-10-22T00:40:17.213Z,99984.11
2022-10-22T00:42:22.103Z,99979.82
2022-10-22T00:44:27.439Z,99986.75
2022-10-22T00:46:32.376Z,99992.19
2022-10-22T00:48:37.699Z,99992.86
2022-10-22T00:50:42.570Z,99991.11
2022-10-22T00:52:47.781Z,99990.27
2022-10-22T00:54:52.831Z,99990.71
2022-10-22T00:56:57.922Z,99990.11
2022-10-22T00:59:03.118Z,99988.89
2022-10-22T01:01:09.185Z,99989.78
2022-10-22T01:03:14.676Z,99982.13
2022-10-22T01:05:20.384Z,99974.93
2022-10-22T01:07:26.068Z,99969.14
2022-10-22T01:09:31.470Z,99968.54
2022-10-22T01:11:36.587Z,99971.22
2022-10-22T01:13:41.541Z,99969.63
2022-10-22T01:15:47.698Z,99967.06
2022-10-22T01:17:52.778Z,99962.19
2022-10-22T01:19:57.976Z,99963.92
2022-10-22T01:22:02.980Z,99961.53
2022-10-22T01:24:08.047Z,99951.44
2022-10-22T01:26:13.356Z,99951.38
2022-10-22T01:28:19.158Z,99945.75
2022-10-22T01:30:24.192Z,99946.31
2022-10-22T01:32:29.359Z,99946.92
2022-10-22T01:34:34.750Z,99950.63
2022-10-22T01:36:40.035Z,99952.85
2022-10-22T01:38:45.141Z,99951.86
2022-10-22T01:40:50.582Z,99952
2022-10-22T01:42:56.019Z,99952.24
2022-10-22T01:45:00.978Z,99953
2022-10-22T01:47:06.266Z,99951.66
2022-10-22T01:49:11.759Z,99950.92
2022-10-22T01:51:17.033Z,99952.73
2022-10-22T01:53:21.920Z,99955.87
2022-10-22T01:55:27.304Z,99958.52
2022-10-22T01:57:32.587Z,99950.89
2022-10-22T01:59:38.094Z,99945.28
2022-10-22T02:01:43.285Z,99937.12
2022-10-22T02:03:48.796Z,99933.8
2022-10-22T02:05:54.354Z,99931.32
2022-10-22T02:07:59.607Z,99931.79
2022-10-22T02:10:04.735Z,99936.66
2022-10-22T02:12:10.411Z,99937.5
2022-10-22T02:14:15.948Z,99938.14
2022-10-22T02:16:21.222Z,99936.49
2022-10-22T02:18:26.233Z,99938.24
2022-10-22T02:20:31.402Z,99936.66
2022-10-22T02:22:36.843Z,99931.8
2022-10-22T02:24:43.076Z,99927.24
2022-10-22T02:26:48.470Z,99925.42
2022-10-22T02:28:54.477Z,99925.09
2022-10-22T02:31:00.749Z,99921.64
2022-10-22T02:33:06.168Z,99923.61
2022-10-22T02:35:11.475Z,99925.32
2022-10-22T02:37:16.980Z,99923.19
2022-10-22T02:39:22.243Z,99916.34
2022-10-22T02:41:27.356Z,99919.95
2022-10-22T02:43:33.336Z,99922.02
2022-10-22T02:45:38.873Z,99923.01
2022-10-22T02:47:44.542Z,99934.19
2022-10-22T02:49:50.265Z,99928.39
2022-10-22T02:51:55.512Z,99931.71
2022-10-22T02:54:01.061Z,99934.56
2022-10-22T02:56:06.474Z,99938.3
2022-10-22T02:58:11.772Z,99943.39
2022-10-22T03:00:17.383Z,99949.59
2022-10-22T03:02:22.525Z,99946.95
2022-10-22T03:04:27.679Z,99947.45
2022-10-22T03:06:32.799Z,99945.22
2022-10-22T03:08:37.995Z,99945.95
2022-10-22T03:10:43.266Z,99944.65
2022-10-22T03:12:48.746Z,99938.93
2022-10-22T03:14:54.251Z,99932.08
2022-10-22T03:16:59.636Z,99922.84
2022-10-22T03:19:04.725Z,99923.48
2022-10-22T03:21:10.283Z,99921.23
2022-10-22T03:23:15.309Z,99918.2
2022-10-22T03:25:20.400Z,99914.63
2022-10-22T03:27:25.453Z,99914.55
2022-10-22T03:29:30.696Z,99918.91
2022-10-22T03:31:36.294Z,99925.66
2022-10-22T03:33:41.544Z,99933.04
2022-10-22T03:35:46.438Z,99937.84
2022-10-22T03:37:51.940Z,99943.02
2022-10-22T03:39:57.056Z,99948.58
2022-10-22T03:42:02.239Z,99955.44
2022-10-22T03:44:07.381Z,99957.66
2022-10-22T03:46:12.554Z,99953.2
2022-10-22T03:48:17.770Z,99942.32
2022-10-22T03:50:23.000Z,99939.8
2022-10-22T03:52:28.381Z,99942.25
2022-10-22T03:54:33.804Z,99937.3
2022-10-22T03:56:39.131Z,99937.79
2022-10-22T03:58:44.135Z,99937.16
2022-10-22T04:00:49.201Z,99936.58
2022-10-22T04:02:54.735Z,99924.09
2022-10-22T04:05:00.143Z,99921.64
2022-10-22T04:07:05.587Z,99909.33
2022-10-22T04:09:10.765Z,99914.76
2022-10-22T04:11:16.032Z,99927.09
2022-10-22T04:13:21.606Z,99929.05
2022-10-22T04:15:26.867Z,99917.83
2022-10-22T04:17:32.055Z,99909.58
2022-10-22T04:19:37.530Z,99910.48
2022-10-22T04:21:42.759Z,99905.12
2022-10-22T04:23:47.786Z,99896.27
2022-10-22T04:25:52.969Z,99890.94
2022-10-22T04:27:58.383Z,99894.14
2022-10-22T04:30:03.967Z,99887.09
2022-10-22T04:32:08.889Z,99880.29
2022-10-22T04:34:14.376Z,99885.41
2022-10-22T04:36:19.528Z,99881.23
2022-10-22T04:38:25.156Z,99875.44
2022-10-22T04:40:30.217Z,99878.14
2022-10-22T04:42:35.637Z,99883.24
2022-10-22T04:44:40.722Z,99889.97
2022-10-22T04:46:45.760Z,99885.89
2022-10-22T04:48:50.758Z,99883.38
2022-10-22T04:50:55.796Z,99881.46
2022-10-22T04:53:00.913Z,99879.8
2022-10-22T04:55:06.438Z,99884.19
2022-10-22T04:57:11.562Z,99885.74
2022-10-22T04:59:16.821Z,99892.09
2022-10-22T05:01:23.002Z,99896.58
2022-10-22T05:03:29.113Z,99900.36
2022-10-22T05:05:34.653Z,99896.08
2022-10-22T05:07:40.881Z,99895.59
2022-10-22T05:09:47.630Z,99893.8
2022-10-22T05:11:52.899Z,99891.14
2022-10-22T05:13:58.113Z,99889.97
2022-10-22T05:16:04.340Z,99884.7
2022-10-22T05:18:09.903Z,99885.02
2022-10-22T05:20:15.044Z,99891.28
2022-10-22T05:22:20.214Z,99895.67
2022-10-22T05:24:26.177Z,99895.09
2022-10-22T05:26:31.319Z,99898.23
2022-10-22T05:28:36.502Z,99894.67
2022-10-22T05:30:41.712Z,99889.56
2022-10-22T05:32:48.088Z,99889.63
2022-10-22T05:34:53.118Z,99891.44
2022-10-22T05:36:58.334Z,99893.61
2022-10-22T05:39:03.787Z,99896.28
2022-10-22T05:41:09.312Z,99889.11
2022-10-22T05:43:14.762Z,99893.42
2022-10-22T05:45:20.312Z,99894.64
2022-10-22T05:47:25.570Z,99896.94
2022-10-22T05:49:31.356Z,99906.09
2022-10-22T05:51:36.505Z,99901.77
2022-10-22T05:53:42.187Z,99893.95
2022-10-22T05:55:48.435Z,99893.38
2022-10-22T05:57:53.945Z,99899.14
2022-10-22T05:59:59.022Z,99894.17
2022-10-22T06:02:04.468Z,99882.95
2022-10-22T06:04:10.140Z,99883.23
2022-10-22T06:06:16.368Z,99885.05
2022-10-22T06:08:22.143Z,99892.09
2022-10-22T06:10:28.430Z,99904.91
2022-10-22T06:12:34.566Z,99908.3
2022-10-22T06:14:40.546Z,99909.28
2022-10-22T06:16:46.345Z,99915.94
2022-10-22T06:18:52.234Z,99912.55
2022-10-22T06:20:58.063Z,99917.75
2022-10-22T06:23:04.072Z,99917.53
2022-10-22T06:25:09.996Z,99909.38
2022-10-22T06:27:16.371Z,99915.69
2022-10-22T06:29:22.688Z,99920.48
2022-10-22T06:31:28.934Z,99918.38
2022-10-22T06:33:34.650Z,99913.05
2022-10-22T06:35:40.925Z,99919.84
2022-10-22T06:37:46.930Z,99918.59
2022-10-22T06:39:52.546Z,99906.81
2022-10-22T06:41:59.034Z,99922.27
2022-10-22T06:44:05.192Z,99912.89
2022-10-22T06:46:13.631Z,99904
2022-10-22T06:48:25.352Z,99910.34
2022-10-22T06:50:31.417Z,99914.59
2022-10-22T06:52:37.339Z,99917.69
2022-10-22T06:54:43.642Z,99915.44
2022-10-22T06:56:50.285Z,99925.25
2022-10-22T06:58:56.833Z,99927.16
2022-10-22T07:01:03.164Z,99929.3
2022-10-22T07:03:09.349Z,99940.34
2022-10-22T07:05:15.495Z,99946.66
2022-10-22T07:07:21.736Z,99953.03
2022-10-22T07:09:28.072Z,99955.23
2022-10-22T07:11:34.267Z,99960.84
2022-10-22T07:13:40.399Z,99970.51
2022-10-22T07:15:46.681Z,99970.44
2022-10-22T07:17:52.795Z,99958.25
2022-10-22T07:19:58.976Z,99958.4
2022-10-22T07:22:05.238Z,99953.84
2022-10-22T07:24:11.435Z,99940.07
2022-10-22T07:26:17.656Z,99926.89
2022-10-22T07:28:23.823Z,99922.91
2022-10-22T07:30:30.287Z,99910.88
2022-10-22T07:32:36.663Z,99906.98
2022-10-22T07:34:45.278Z,99905.68
2022-10-22T07:36:51.415Z,99905.34
2022-10-22T07:38:57.910Z,99912
2022-10-22T07:41:03.849Z,99905.78
2022-10-22T07:43:10.584Z,99916.28
2022-10-22T07:45:16.964Z,99925.34
2022-10-22T07:47:23.358Z,99935.69
2022-10-22T07:49:29.855Z,99945.58
2022-10-22T07:51:36.159Z,99953.31
2022-10-22T07:53:42.511Z,99960.2
2022-10-22T07:55:49.088Z,99952.13
2022-10-22T07:57:55.429Z,99957.97
2022-10-22T08:00:01.704Z,99959.14
2022-10-22T08:02:07.870Z,99956.02
2022-10-22T08:04:13.830Z,99959.62
2022-10-22T08:06:20.161Z,99958.27
2022-10-22T08:08:31.414Z,99958.58
2022-10-22T08:10:38.188Z,99958.17
2022-10-22T08:12:45.555Z,99957.13
2022-10-22T08:14:52.073Z,99958.22
2022-10-22T08:16:58.332Z,99962.48
2022-10-22T08:19:04.583Z,99961.8
2022-10-22T08:21:10.886Z,99963.85
2022-10-22T08:23:17.319Z,99971.2
2022-10-22T08:25:30.760Z,99970.8
2022-10-22T08:27:37.197Z,99972.25
2022-10-22T08:29:44.863Z,99972.56
2022-10-22T08:31:51.096Z,99968.4
2022-10-22T08:33:57.647Z,99954.09
2022-10-22T08:36:04.056Z,99957.44
2022-10-22T08:38:10.638Z,99956.98
2022-10-22T08:40:16.758Z,99956.72
2022-10-22T08:42:23.097Z,99951.49
2022-10-22T08:44:29.940Z,99950.08
2022-10-22T08:46:36.163Z,99952.34
2022-10-22T08:48:42.566Z,99956.64
2022-10-22T08:50:49.184Z,99954.8
2022-10-22T08:52:55.422Z,99954.05
2022-10-22T08:55:01.374Z,99956.15
2022-10-22T08:57:07.711Z,99958.97
2022-10-22T08:59:14.462Z,99959.37
2022-10-22T09:01:20.604Z,99957.52
2022-10-22T09:03:27.560Z,99961.72
2022-10-22T09:05:35.528Z,99966.62
2022-10-22T09:07:42.422Z,99959.79
2022-10-22T09:09:49.097Z,99955.36
2022-10-22T09:11:55.480Z,99948.64
2022-10-22T09:14:01.800Z,99948.36
2022-10-22T09:16:08.427Z,99945.72
2022-10-22T09:18:14.677Z,99946.7
2022-10-22T09:20:21.142Z,99955.39
2022-10-22T09:22:28.251Z,99960.48
2022-10-22T09:24:35.148Z,99956.98
2022-10-22T09:26:42.214Z,99953
2022-10-22T09:28:48.515Z,99953.2
2022-10-22T09:30:54.716Z,99955.81
2022-10-22T09:33:01.449Z,99947.22
2022-10-22T09:35:07.428Z,99937.83
2022-10-22T09:37:14.448Z,99940.03
2022-10-22T09:39:21.127Z,99933.68
2022-10-22T09:41:27.457Z,99931.59
2022-10-22T09:43:34.157Z,99931.87
2022-10-22T09:45:40.282Z,99934.89
2022-10-22T09:48:03.238Z,99939.76
2022-10-22T09:50:09.696Z,99944.39
2022-10-22T09:52:15.740Z,99946.63
2022-10-22T09:54:22.045Z,99951.5
2022-10-22T09:56:28.284Z,99957.77
2022-10-22T09:58:34.591Z,99964.48
2022-10-22T10:00:40.950Z,99960.84
2022-10-22T10:02:47.145Z,99957.99
2022-10-22T10:04:53.859Z,99957.16
2022-10-22T10:07:00.388Z,99958.75
2022-10-22T10:09:06.588Z,99962.23
2022-10-22T10:11:13.367Z,99962.39
2022-10-22T10:13:19.543Z,99956.44
2022-10-22T10:15:26.429Z,99960.97
2022-10-22T10:17:32.761Z,99962.09
2022-10-22T10:19:39.546Z,99966.18
2022-10-22T10:21:46.042Z,99970.84
2022-10-22T10:23:52.859Z,99970.8
2022-10-22T10:25:58.966Z,99966.98
2022-10-22T10:28:05.004Z,99966.04
2022-10-22T10:30:11.582Z,99964.16
2022-10-22T10:32:23.698Z,99963.77
2022-10-22T10:34:31.301Z,99954.75
2022-10-22T10:36:37.347Z,99956.57
2022-10-22T10:38:43.794Z,99955.11
2022-10-22T10:40:50.276Z,99956.3
2022-10-22T10:42:56.983Z,99963.58
2022-10-22T10:45:02.962Z,99970.84
2022-10-22T10:47:09.329Z,99977.4
2022-10-22T10:49:16.198Z,99977.98
2022-10-22T10:51:22.902Z,99983.17
2022-10-22T10:53:29.227Z,99987.7
2022-10-22T10:55:35.596Z,99988.04
2022-10-22T10:57:42.922Z,99980.33
2022-10-22T10:59:49.356Z,99976.92
2022-10-22T11:01:56.075Z,99974.82
2022-10-22T11:04:02.553Z,99973.58
2022-10-22T11:06:08.571Z,99968.34
2022-10-22T11:08:16.479Z,99959.36
2022-10-22T11:10:23.384Z,99956.23
2022-10-22T11:12:29.976Z,99950.88
2022-10-22T11:14:36.521Z,99938.61
2022-10-22T11:16:42.552Z,99939.25
2022-10-22T11:18:48.616Z,99932.45
2022-10-22T11:20:55.022Z,99936.97
2022-10-22T11:23:21.706Z,99937.89
2022-10-22T11:25:30.851Z,99940.41
2022-10-22T11:27:37.296Z,99938.63
2022-10-22T11:29:44.606Z,99944.74
2022-10-22T11:31:50.844Z,99944
2022-10-22T11:34:32.494Z,99943.33
2022-10-22T11:36:39.764Z,99944.11
2022-10-22T11:38:46.167Z,99945.8
2022-10-22T11:40:52.878Z,99947.59
2022-10-22T11:42:59.469Z,99944.97
2022-10-22T11:45:05.936Z,99943
2022-10-22T11:47:12.354Z,99943.41
2022-10-22T11:49:18.591Z,99936.77
2022-10-22T11:51:24.724Z,99937.78
2022-10-22T11:53:31.055Z,99933.25
2022-10-22T11:55:37.401Z,99928.59
2022-10-22T11:57:44.462Z,99929.35
2022-10-22T11:59:50.796Z,99930.31
2022-10-22T12:01:57.375Z,99931.44
2022-10-22T12:04:03.443Z,99930.34
2022-10-22T12:06:09.890Z,99927.38
2022-10-22T12:08:17.353Z,99928.51
2022-10-22T12:10:23.613Z,99928.13
2022-10-22T12:12:29.765Z,99932.71
2022-10-22T12:14:36.299Z,99933.41
2022-10-22T12:16:59.152Z,99926.88
2022-10-22T12:19:05.320Z,99930.91
2022-10-22T12:21:11.690Z,99928.85
2022-10-22T12:23:18.075Z,99932.33
2022-10-22T12:25:23.965Z,99933.97
2022-10-22T12:27:30.079Z,99935.86
2022-10-22T12:29:36.764Z,99935.17
2022-10-22T12:31:42.903Z,99934.42
2022-10-22T12:33:49.153Z,99935
2022-10-22T12:35:55.486Z,99930.58
2022-10-22T12:38:01.602Z,99928.78
2022-10-22T12:40:08.053Z,99930.96
2022-10-22T12:42:14.730Z,99928.62
2022-10-22T12:44:21.003Z,99928.78
2022-10-22T12:46:27.610Z,99929.16
2022-10-22T12:48:34.703Z,99927.29
2022-10-22T12:50:40.676Z,99924.77
2022-10-22T12:52:46.187Z,99919.04
2022-10-22T12:54:52.193Z,99922.89
2022-10-22T12:56:58.568Z,99918.05
2022-10-22T12:59:04.917Z,99920.56
2022-10-22T13:01:11.469Z,99920.44
2022-10-22T13:03:17.796Z,99925.17
2022-10-22T13:05:24.316Z,99929.06
2022-10-22T13:07:30.362Z,99935.63
2022-10-22T13:09:38.147Z,99937.55
2022-10-22T13:11:44.591Z,99946.44
2022-10-22T13:13:50.411Z,99937.36
2022-10-22T13:15:56.142Z,99935.09
2022-10-22T13:18:02.305Z,99933.48
2022-10-22T13:20:08.550Z,99933.3
2022-10-22T13:22:15.030Z,99936.53
2022-10-22T13:24:21.197Z,99938.55
2022-10-22T13:26:27.641Z,99934.95
2022-10-22T13:28:33.968Z,99931.58
2022-10-22T13:30:40.719Z,99929.66
2022-10-22T13:32:49.733Z,99933.95
2022-10-22T13:34:56.237Z,99927.92
2022-10-22T13:37:02.460Z,99929.21
2022-10-22T13:39:08.710Z,99936.63
2022-10-22T13:41:14.753Z,99943.34
2022-10-22T13:43:20.836Z,99942.01
2022-10-22T13:45:26.912Z,99929.17
2022-10-22T13:47:33.537Z,99919.86
2022-10-22T13:49:40.432Z,99914.17
2022-10-22T13:51:48.499Z,99917.66
2022-10-22T13:53:54.956Z,99915.98
2022-10-22T13:56:01.407Z,99910.11
2022-10-22T13:58:07.898Z,99913.58
2022-10-22T14:00:14.811Z,99911.03
2022-10-22T14:02:20.764Z,99904.59
2022-10-22T14:04:27.078Z,99902.7
2022-10-22T14:06:33.529Z,99898.91
2022-10-22T14:08:41.592Z,99899.11
2022-10-22T14:10:49.254Z,99895.62
2022-10-22T14:12:55.619Z,99892.16
2022-10-22T14:15:02.211Z,99889.92
2022-10-22T14:17:08.849Z,99885.44
2022-10-22T14:19:15.167Z,99885.56
2022-10-22T14:21:21.515Z,99889.79
2022-10-22T14:23:28.125Z,99895.14
2022-10-22T14:25:34.363Z,99900.97
2022-10-22T14:27:42.152Z,99899.98
2022-10-22T14:29:50.372Z,99905.98
2022-10-22T14:32:03.267Z,99907.89
2022-10-22T14:34:10.295Z,99911.23
2022-10-22T14:36:16.516Z,99903.27
2022-10-22T14:38:22.829Z,99902.48
2022-10-22T14:40:29.713Z,99906.41
2022-10-22T14:42:36.229Z,99906.92
2022-10-22T14:44:44.308Z,99909.48
2022-10-22T14:46:51.769Z,99915.59
2022-10-22T14:48:57.830Z,99913.28
2022-10-22T14:51:04.699Z,99912.1
2022-10-22T14:53:10.908Z,99909.28
2022-10-22T14:55:17.604Z,99913.07
2022-10-22T14:57:24.055Z,99902.2
2022-10-22T14:59:30.803Z,99905.37
2022-10-22T15:01:37.532Z,99911.34
2022-10-22T15:03:44.098Z,99913.67
2022-10-22T15:05:50.963Z,99915.09
2022-10-22T15:07:58.899Z,99912.11
2022-10-22T15:10:05.840Z,99918
2022-10-22T15:12:12.991Z,99917.81
2022-10-22T15:14:19.298Z,99920.05
2022-10-22T15:16:27.387Z,99922.66
2022-10-22T15:18:36.465Z,99916.36
2022-10-22T15:20:42.511Z,99926.61
2022-10-22T15:22:49.687Z,99929.02
2022-10-22T15:24:57.582Z,99931.24
2022-10-22T15:27:07.702Z,99932.2
2022-10-22T15:29:17.148Z,99930.7
2022-10-22T15:31:23.787Z,99929.84
2022-10-22T15:33:30.102Z,99927.19
2022-10-22T15:35:37.191Z,99930.47
2022-10-22T15:37:43.565Z,99927.63
2022-10-22T15:39:51.527Z,99931.5
2022-10-22T15:41:58.200Z,99931.11
2022-10-22T15:44:06.365Z,99930.49
2022-10-22T15:46:12.903Z,99930.84
2022-10-22T15:48:19.769Z,99931.17
2022-10-22T15:50:26.744Z,99930.91
2022-10-22T15:52:35.243Z,99933.15
2022-10-22T15:54:42.842Z,99932.1
2022-10-22T15:56:50.259Z,99934.11
2022-10-22T15:58:57.662Z,99934.91
2022-10-22T16:01:05.147Z,99933.85
2022-10-22T16:03:13.244Z,99939.44
2022-10-22T16:05:20.970Z,99938.39
2022-10-22T16:07:28.700Z,99942.16
2022-10-22T16:09:36.245Z,99948.17
2022-10-22T16:11:42.833Z,99953.86
2022-10-22T16:13:50.250Z,99956.16
2022-10-22T16:15:57.882Z,99957.44
2022-10-22T16:18:04.322Z,99959.91
2022-10-22T16:22:20.627Z,99958.16
2022-10-22T16:24:27.400Z,99960.23
2022-10-22T16:26:33.869Z,99961.15
2022-10-22T16:28:42.074Z,99956.72
2022-10-22T16:30:50.943Z,99962.13
2022-10-22T16:32:58.779Z,99964.03
2022-10-22T16:35:08.638Z,99963.13
2022-10-22T16:37:16.581Z,99962.53
2022-10-22T16:39:26.254Z,99963.55
2022-10-22T16:41:37.556Z,99961.02
2022-10-22T16:43:45.984Z,99963.49
2022-10-22T16:45:53.432Z,99959.36
2022-10-22T16:48:00.935Z,99962.25
2022-10-22T16:50:08.582Z,99959.3
2022-10-22T16:52:18.484Z,99959.97
2022-10-22T16:54:24.763Z,99964.84
2022-10-22T16:56:32.813Z,99972.81
2022-10-22T16:58:40.350Z,99970.82
2022-10-22T17:00:48.056Z,99970.52
2022-10-22T17:02:59.606Z,99970.95
2022-10-22T17:05:12.337Z,99974.67
2022-10-22T17:07:23.708Z,99972.64
2022-10-22T17:09:34.025Z,99974.51
2022-10-22T17:11:44.982Z,99977.18
2022-10-22T17:13:57.257Z,99982.29
2022-10-22T17:16:07.141Z,99983.22
2022-10-22T17:18:17.180Z,99981.27
2022-10-22T17:20:36.912Z,99980.8
2022-10-22T17:22:49.201Z,99982.3
2022-10-22T17:24:58.622Z,99982.58
2022-10-22T17:27:09.032Z,99986.78
2022-10-22T17:29:19.756Z,99986.27
2022-10-22T17:31:37.257Z,99987.87
2022-10-22T17:33:47.095Z,99985.55
2022-10-22T17:36:00.466Z,99991.82
2022-10-22T17:38:08.917Z,99987.58
2022-10-22T17:40:19.744Z,99989.72
2022-10-22T17:42:30.754Z,99986.27
2022-10-22T17:44:40.180Z,99989.34
2022-10-22T17:46:52.462Z,99987.86
2022-10-22T17:49:00.871Z,99988.43
2022-10-22T17:51:14.017Z,99985.03
2022-10-22T17:53:22.116Z,99987.14
2022-10-22T17:55:33.838Z,99989.05
2022-10-22T17:57:43.136Z,99991.87
2022-10-22T17:59:53.652Z,99993.58
2022-10-22T18:02:02.833Z,99997.5
2022-10-22T18:04:13.630Z,99993.91
2022-10-22T18:06:24.592Z,99997.35
2022-10-22T18:08:34.407Z,99999.16
2022-10-22T18:10:46.194Z,99995.05
2022-10-22T18:12:56.833Z,99998.53
2022-10-22T18:15:07.034Z,99995.55
2022-10-22T18:17:16.684Z,99996.05
2022-10-22T18:19:27.606Z,99998.34
2022-10-22T18:21:51.032Z,99995.38
2022-10-22T18:24:12.546Z,99995.62
2022-10-22T18:26:27.875Z,99995.32
2022-10-22T18:28:36.907Z,99992.99
2022-10-22T18:30:46.943Z,99993.36
2022-10-22T18:32:57.003Z,99999.34
2022-10-22T18:35:06.122Z,99994.91
2022-10-22T18:37:19.636Z,99995.34
2022-10-22T18:39:30.509Z,99993.88
2022-10-22T18:41:41.806Z,99997.38
2022-10-22T18:43:55.673Z,99997.45
2022-10-22T18:46:03.639Z,99995.36
2022-10-22T18:48:13.848Z,99998.8
2022-10-22T18:50:37.772Z,100001.96
2022-10-22T18:52:50.539Z,99997.56
2022-10-22T18:55:02.702Z,100003.28
2022-10-22T18:57:15.337Z,100003.7
2022-10-22T18:59:29.031Z,100005.14
2022-10-22T19:01:45.348Z,100004.39
2022-10-22T19:03:55.622Z,100008.7
2022-10-22T19:06:11.159Z,100009.84
2022-10-22T19:08:19.724Z,100011.77
2022-10-22T19:10:28.334Z,100015.39
2022-10-22T19:12:41.763Z,100020.96
2022-10-22T19:14:51.046Z,100018.67
2022-10-22T19:17:00.305Z,100024.16
2022-10-22T19:19:11.314Z,100020.14
2022-10-22T19:21:19.723Z,100019.91
2022-10-22T19:23:33.048Z,100022.39
2022-10-22T19:25:45.162Z,100026.36
2022-10-22T19:27:54.050Z,100028.72
2022-10-22T19:30:05.436Z,100031
2022-10-22T19:32:14.353Z,100031.19
2022-10-22T19:34:29.753Z,100038.18
2022-10-22T19:36:41.564Z,100040.14
2022-10-22T19:38:49.298Z,100042.04
2022-10-22T19:41:00.929Z,100044.13
2022-10-22T19:43:15.515Z,100046.36
2022-10-22T19:45:27.822Z,100047.27
2022-10-22T19:47:39.357Z,100049
2022-10-22T19:49:50.952Z,100049.84
2022-10-22T19:52:01.965Z,100052.71
2022-10-22T19:54:13.438Z,100056.15
2022-10-22T19:56:27.261Z,100053.7
2022-10-22T19:58:38.020Z,100052.47
2022-10-22T20:00:46.203Z,100055.08
2022-10-22T20:02:57.572Z,100060.8
2022-10-22T20:05:05.365Z,100063.05
2022-10-22T20:07:15.728Z,100069.69
2022-10-22T20:09:26.105Z,100067.35
2022-10-22T20:11:33.853Z,100072.31
2022-10-22T20:13:41.692Z,100074.81
2022-10-22T20:15:57.649Z,100079.09
2022-10-22T20:18:16.476Z,100081.8
2022-10-22T20:20:28.140Z,100083.99
2022-10-22T20:22:36.078Z,100083.63
2022-10-22T20:24:44.022Z,100088.13
2022-10-22T20:26:55.264Z,100087.41
2022-10-22T20:29:07.640Z,100087.48
2022-10-22T20:31:15.871Z,100089.73
2022-10-22T20:33:26.035Z,100090.16
2022-10-22T20:35:33.041Z,100091.05
2022-10-22T20:37:42.704Z,100092.73
2022-10-22T20:39:50.879Z,100092
2022-10-22T20:41:58.989Z,100095.36
2022-10-22T20:44:08.910Z,100097.28
2022-10-22T20:46:17.007Z,100098.57
2022-10-22T20:48:24.209Z,100094
2022-10-22T20:50:36.044Z,100093.56
2022-10-22T20:52:43.885Z,100098.7
2022-10-22T20:54:51.910Z,100101.33
2022-10-22T20:57:04.327Z,100103.53
2022-10-22T20:59:13.394Z,100107.72
2022-10-22T21:01:21.012Z,100102.28
2022-10-22T21:05:44.017Z,100108.55
2022-10-22T21:07:55.116Z,100108.77
2022-10-22T21:10:06.078Z,100108.3
2022-10-22T21:12:14.314Z,100107.09
2022-10-22T21:14:21.337Z,100101.05
2022-10-22T21:16:27.478Z,100108.71
2022-10-22T21:18:33.957Z,100109.75
2022-10-22T21:20:40.629Z,100109.52
2022-10-22T21:22:47.164Z,100113.31
2022-10-22T21:24:53.398Z,100111.86
2022-10-22T21:26:59.847Z,100106.43
2022-10-22T21:29:06.998Z,100114.27
2022-10-22T21:31:13.558Z,100108.59
2022-10-22T21:33:22.242Z,100107.81
2022-10-22T21:35:28.909Z,100109.42
2022-10-22T21:37:36.320Z,100109.37
2022-10-22T21:39:43.884Z,100111.14
2022-10-22T21:41:51.890Z,100101.89
2022-10-22T21:43:58.991Z,100109.98
2022-10-22T21:46:09.432Z,100115.88
2022-10-22T21:48:16.336Z,100118.03
2022-10-22T21:50:22.346Z,100117.2
2022-10-22T21:52:29.207Z,100114.91
2022-10-22T21:54:36.490Z,100113.54
2022-10-22T21:56:42.993Z,100117.94
2022-10-22T21:58:49.827Z,100121.09
2022-10-22T22:00:56.249Z,100122.52
2022-10-22T22:03:04.967Z,100121.39
2022-10-22T22:05:11.733Z,100123.42
2022-10-22T22:07:19.092Z,100125.88
2022-10-22T22:09:25.642Z,100126.42
2022-10-22T22:11:32.110Z,100134.19
2022-10-22T22:13:39.230Z,100132.14
2022-10-22T22:15:46.268Z,100129.74
2022-10-22T22:17:52.968Z,100137.11
2022-10-22T22:19:59.164Z,100136.5
2022-10-22T22:22:05.920Z,100137.3
2022-10-22T22:24:12.153Z,100137.7
2022-10-22T22:26:18.369Z,100139.28
2022-10-22T22:28:30.527Z,100140.09
2022-10-22T22:30:36.690Z,100147.38
2022-10-22T22:32:44.107Z,100149.36
2022-10-22T22:34:51.268Z,100153.08
2022-10-22T22:36:57.444Z,100157.23
2022-10-22T22:39:03.937Z,100157.25
2022-10-22T22:41:10.682Z,100159.83
2022-10-22T22:43:17.163Z,100160.05
2022-10-22T22:45:23.806Z,100158.06
2022-10-22T22:47:30.807Z,100156.2
2022-10-22T22:49:38.553Z,100159.16
2022-10-22T22:51:43.898Z,100162.89
2022-10-22T22:53:49.525Z,100168.06
2022-10-22T22:55:55.766Z,100168.02
2022-10-22T22:58:01.848Z,100170.41
2022-10-22T23:00:08.187Z,100175.85
2022-10-22T23:02:14.514Z,100178.77
2022-10-22T23:04:20.368Z,100177.53
2022-10-22T23:06:26.729Z,100179.2
2022-10-22T23:08:32.991Z,100183.85
2022-10-22T23:10:38.284Z,100183.38
2022-10-22T23:12:45.746Z,100183.64
2022-10-22T23:14:51.987Z,100187.27
2022-10-22T23:16:57.220Z,100184.4
2022-10-22T23:19:02.516Z,100189.47
2022-10-22T23:21:08.155Z,100188.72
2022-10-22T23:23:13.998Z,100191.35
2022-10-22T23:25:19.572Z,100193.99
2022-10-22T23:27:25.356Z,100192.36
2022-10-22T23:29:30.794Z,100194.77
2022-10-22T23:31:37.179Z,100194.31
2022-10-22T23:33:42.312Z,100195.95
2022-10-22T23:35:47.658Z,100193.48
2022-10-22T23:37:53.053Z,100192.55
2022-10-22T23:39:58.494Z,100187.92
2022-10-22T23:42:04.013Z,100192.63
2022-10-22T23:44:10.202Z,100197.05
2022-10-22T23:46:15.619Z,100200.17
2022-10-22T23:48:21.171Z,100201.22
2022-10-22T23:50:26.830Z,100199.02
2022-10-22T23:52:32.590Z,100200.88
2022-10-22T23:54:38.204Z,100202.59
2022-10-22T23:56:43.449Z,100201.02
2022-10-22T23:58:48.786Z,100199.7
